Time;durP1;ratioP1;P1;durP2;ratioP2;P2;SDS_P1;SDS_P2;PMS_P1;PMS_P2;Temp;Humidity;BMP_temperature;BMP_pressure;BME280_temperature;BME280_humidity;BME280_pressure;Samples;Min_cycle;Max_cycle;Signal;HPM_P1;HPM_P2
2023/12/12 00:00:43;;;;;;;3.95;1.00;;;;;;;19.61;48.47;98397.31;7395718;19;20099;-52
2023/12/12 00:03:09;;;;;;;2.22;1.00;;;;;;;20.02;48.21;98393.88;7394857;19;20010;-52
2023/12/12 00:05:35;;;;;;;0.20;0.20;;;;;;;18.06;57.67;98397.25;7392394;19;20026;-53
2023/12/12 00:08:02;;;;;;;0.15;0.15;;;;;;;20.13;53.10;98390.59;7397879;19;20006;-52
2023/12/12 00:10:28;;;;;;;5.15;1.42;;;;;;;19.04;56.42;98391.50;7392620;19;20014;-52
2023/12/12 00:12:54;;;;;;;0.20;0.20;;;;;;;19.08;58.20;98405.97;7393014;19;20011;-52
2023/12/12 00:15:20;;;;;;;2.92;0.45;;;;;;;18.52;61.18;98398.78;7391908;19;20011;-52
2023/12/12 00:17:46;;;;;;;3.92;1.02;;;;;;;18.14;65.83;98370.59;7395543;19;20018;-53
2023/12/12 00:20:13;;;;;;;2.50;1.05;;;;;;;19.08;63.82;98369.28;7397518;19;20014;-53
2023/12/12 00:22:39;;;;;;;0.10;0.10;;;;;;;19.19;61.34;98357.59;7391391;19;20031;-52
2023/12/12 00:25:05;;;;;;;0.40;0.17;;;;;;;19.38;61.78;98360.72;7391458;19;20014;-52
2023/12/12 00:27:32;;;;;;;0.95;0.50;;;;;;;20.46;58.97;98363.00;7393652;19;20069;-52
2023/12/12 00:29:58;;;;;;;0.30;0.30;;;;;;;18.01;67.21;98359.50;7391730;19;20328;-53
2023/12/12 00:32:24;;;;;;;1.10;0.85;;;;;;;19.91;61.01;98354.75;7392626;19;20010;-52
2023/12/12 00:34:51;;;;;;;6.03;0.40;;;;;;;19.01;66.58;98344.69;7393527;19;20014;-53
2023/12/12 00:37:17;;;;;;;3.13;0.60;;;;;;;20.99;58.63;98336.97;7396542;19;20035;-52
2023/12/12 00:39:43;;;;;;;1.98;0.47;;;;;;;20.58;58.69;98349.13;7392537;19;20031;-52
2023/12/12 00:42:09;;;;;;;2.88;0.70;;;;;;;18.45;66.10;98345.22;7393012;19;20021;-53
2023/12/12 00:44:36;;;;;;;0.35;0.35;;;;;;;17.48;78.22;98350.19;7393411;19;20086;-52
2023/12/12 00:47:02;;;;;;;1.45;0.75;;;;;;;19.82;67.13;98343.31;7393228;19;20013;-53
2023/12/12 00:49:28;;;;;;;0.20;0.20;;;;;;;20.30;63.98;98339.00;7392722;19;20038;-53
2023/12/12 00:51:55;;;;;;;0.40;0.38;;;;;;;20.12;63.90;98320.50;7392407;19;20041;-53
2023/12/12 00:54:21;;;;;;;0.68;0.50;;;;;;;20.22;63.97;98312.91;7392133;19;20014;-52
2023/12/12 00:56:47;;;;;;;1.35;0.95;;;;;;;21.51;59.73;98303.66;7391739;19;20007;-52
2023/12/12 00:59:14;;;;;;;0.52;0.50;;;;;;;20.47;62.08;98293.78;7391925;19;20658;-53
2023/12/12 01:01:41;;;;;;;0.75;0.60;;;;;;;22.20;55.79;98282.16;7396494;19;20850;-53
2023/12/12 01:04:10;;;;;;;0.45;0.45;;;;;;;17.52;80.01;98285.84;7391723;19;20035;-53
2023/12/12 01:06:36;;;;;;;2.33;0.47;;;;;;;18.92;76.55;98277.59;7393758;19;20563;-53
2023/12/12 01:09:02;;;;;;;0.30;0.20;;;;;;;19.23;75.01;98272.53;7395396;19;20466;-52
2023/12/12 01:11:28;;;;;;;0.45;0.45;;;;;;;20.73;62.96;98264.84;7391866;19;20424;-52
2023/12/12 01:13:54;;;;;;;2.75;0.93;;;;;;;21.62;61.55;98254.94;7396685;19;20010;-53
2023/12/12 01:16:20;;;;;;;0.50;0.50;;;;;;;22.02;59.37;98243.94;7389912;19;20093;-53
2023/12/12 01:18:47;;;;;;;0.50;0.45;;;;;;;20.20;65.00;98254.13;7394327;19;20348;-53
2023/12/12 01:21:13;;;;;;;6.45;0.77;;;;;;;21.64;59.54;98238.09;7391199;19;20007;-53
2023/12/12 01:23:55;;;;;;;0.68;0.68;;;;;;;20.10;65.38;98249.66;7391090;19;20641;-53
2023/12/12 01:26:22;;;;;;;4.88;0.35;;;;;;;20.72;64.38;98237.88;7391770;19;20010;-53
2023/12/12 01:28:49;;;;;;;0.55;0.28;;;;;;;20.62;64.00;98237.06;7392032;19;20022;-53
2023/12/12 01:31:16;;;;;;;1.88;0.88;;;;;;;22.11;61.50;98225.44;7387300;19;20523;-53
2023/12/12 01:33:43;;;;;;;3.33;0.55;;;;;;;21.61;61.80;98220.19;7389952;19;20023;-52
2023/12/12 01:36:10;;;;;;;0.10;0.10;;;;;;;22.28;59.76;98223.22;7389002;19;20010;-52
2023/12/12 01:38:37;;;;;;;1.75;1.45;;;;;;;21.72;60.69;98218.91;7391692;19;20014;-52
2023/12/12 01:41:03;;;;;;;0.43;0.35;;;;;;;21.31;62.81;98208.63;7389088;19;20014;-52
2023/12/12 01:43:31;;;;;;;4.38;1.05;;;;;;;20.82;64.55;98218.13;7390895;19;20021;-52
2023/12/12 01:46:00;;;;;;;2.50;0.77;;;;;;;20.98;63.92;98231.50;7393646;19;20018;-52
2023/12/12 01:48:28;;;;;;;0.88;0.35;;;;;;;21.66;63.74;98221.25;7393071;19;20007;-52
2023/12/12 01:50:55;;;;;;;0.90;0.65;;;;;;;22.64;61.04;98216.66;7389536;19;20031;-52
2023/12/12 01:53:26;;;;;;;2.75;0.55;;;;;;;22.20;59.66;98222.59;7390095;19;20015;-53
2023/12/12 01:55:53;;;;;;;1.85;0.40;;;;;;;22.05;60.35;98210.78;7391567;19;20007;-53
2023/12/12 01:58:20;;;;;;;0.57;0.30;;;;;;;21.01;62.49;98199.19;7393396;19;20015;-53
2023/12/12 02:00:47;;;;;;;0.22;0.22;;;;;;;20.11;66.96;98191.81;7393649;19;20359;-53
2023/12/12 02:03:15;;;;;;;16.48;1.40;;;;;;;20.38;65.57;98189.81;7391248;19;20014;-53
2023/12/12 02:05:41;;;;;;;2.97;1.02;;;;;;;21.13;64.70;98190.94;7387724;19;20006;-53
2023/12/12 02:08:08;;;;;;;12.13;1.35;;;;;;;19.52;71.43;98181.25;7391805;19;20018;-53
2023/12/12 02:10:34;;;;;;;0.63;0.40;;;;;;;20.43;67.72;98169.03;7390281;19;20021;-53
2023/12/12 02:13:00;;;;;;;0.90;0.30;;;;;;;19.52;72.35;98164.31;7396867;19;20425;-53
2023/12/12 02:15:27;;;;;;;0.80;0.63;;;;;;;19.33;74.09;98158.44;7396995;19;20014;-53
2023/12/12 02:17:53;;;;;;;0.52;0.52;;;;;;;19.33;76.00;98161.25;7398994;19;20021;-53
2023/12/12 02:20:19;;;;;;;0.20;0.20;;;;;;;19.93;73.64;98162.03;7397551;19;20021;-53
2023/12/12 02:22:45;;;;;;;9.02;0.60;;;;;;;20.68;68.05;98138.53;7400886;19;20474;-53
2023/12/12 02:25:13;;;;;;;0.93;0.90;;;;;;;21.64;67.08;98144.59;7395940;19;20058;-53
2023/12/12 02:27:39;;;;;;;0.35;0.35;;;;;;;22.46;62.24;98141.53;7396938;19;20015;-53
2023/12/12 02:30:06;;;;;;;1.10;0.50;;;;;;;22.36;62.22;98146.47;7402652;19;20081;-53
2023/12/12 02:32:32;;;;;;;0.73;0.73;;;;;;;22.97;60.63;98160.13;7397050;19;20518;-53
2023/12/12 02:34:59;;;;;;;0.73;0.60;;;;;;;22.95;60.18;98162.84;7397254;19;20329;-53
2023/12/12 02:37:26;;;;;;;1.10;0.47;;;;;;;22.98;59.96;98151.00;7400098;19;20011;-53
2023/12/12 02:39:52;;;;;;;0.40;0.13;;;;;;;23.24;59.40;98154.94;7399168;19;20082;-53
2023/12/12 02:42:18;;;;;;;1.48;0.50;;;;;;;21.20;65.51;98164.59;7396440;19;20011;-53
2023/12/12 02:44:44;;;;;;;0.20;0.10;;;;;;;20.38;70.29;98164.38;7394622;19;20119;-53
2023/12/12 02:47:10;;;;;;;0.25;0.25;;;;;;;20.24;73.33;98164.00;7396251;19;20018;-53
2023/12/12 02:49:36;;;;;;;2.08;0.65;;;;;;;20.78;72.20;98170.47;7400173;19;20011;-53
2023/12/12 02:52:03;;;;;;;0.20;0.20;;;;;;;21.81;67.87;98152.97;7393691;19;20393;-53
2023/12/12 02:54:30;;;;;;;0.90;0.70;;;;;;;21.41;66.16;98156.34;7396306;19;20035;-53
2023/12/12 02:56:56;;;;;;;1.17;0.30;;;;;;;20.96;69.38;98152.06;7396256;19;20006;-53
2023/12/12 02:59:22;;;;;;;0.68;0.30;;;;;;;20.52;71.75;98150.63;7398898;19;20014;-53
2023/12/12 03:01:49;;;;;;;0.77;0.47;;;;;;;27.45;55.27;98126.94;7394497;19;20015;-53
2023/12/12 03:04:15;;;;;;;0.45;0.28;;;;;;;23.97;54.64;98144.38;7394768;19;20014;-53
2023/12/12 03:06:41;;;;;;;1.02;0.50;;;;;;;31.76;44.11;98123.31;7397238;19;20031;-53
2023/12/12 03:09:07;;;;;;;0.20;0.20;;;;;;;34.34;35.00;98108.97;7398178;19;20082;-53
2023/12/12 03:11:34;;;;;;;0.30;0.10;;;;;;;34.98;33.24;98115.59;7395305;19;20459;-53
2023/12/12 03:14:00;;;;;;;1.33;0.80;;;;;;;35.78;31.53;98110.81;7395551;19;20558;-54
2023/12/12 03:16:27;;;;;;;3.80;0.95;;;;;;;36.22;30.68;98093.53;7398114;19;20007;-53
2023/12/12 03:18:53;;;;;;;0.45;0.40;;;;;;;36.41;29.93;98095.28;7395513;19;20002;-53
2023/12/12 03:21:19;;;;;;;1.40;0.45;;;;;;;36.14;29.74;98097.03;7394389;19;20006;-53
2023/12/12 03:23:47;;;;;;;0.30;0.30;;;;;;;36.15;29.61;98095.59;7394705;19;20042;-53
2023/12/12 03:26:13;;;;;;;0.47;0.35;;;;;;;36.31;29.31;98089.34;7395238;19;20019;-54
2023/12/12 03:28:39;;;;;;;2.10;0.75;;;;;;;36.42;28.90;98085.16;7394441;19;20014;-53
2023/12/12 03:31:05;;;;;;;1.85;0.98;;;;;;;36.54;28.93;98088.28;7395109;19;20030;-53
2023/12/12 03:33:32;;;;;;;0.63;0.63;;;;;;;37.43;28.06;98086.66;7399613;19;20029;-53
2023/12/12 03:35:58;;;;;;;0.65;0.55;;;;;;;33.85;30.92;98092.50;7399418;19;20021;-54
2023/12/12 03:38:24;;;;;;;2.30;0.82;;;;;;;33.54;31.23;98090.22;7395380;19;20366;-53
2023/12/12 03:40:51;;;;;;;0.32;0.20;;;;;;;33.52;31.39;98076.47;7398288;19;20015;-54
2023/12/12 03:43:17;;;;;;;1.85;1.05;;;;;;;33.36;31.29;98075.22;7394358;19;20075;-53
2023/12/12 03:45:43;;;;;;;1.75;1.17;;;;;;;33.44;31.47;98075.47;7391363;19;20514;-54
2023/12/12 03:48:09;;;;;;;0.85;0.20;;;;;;;33.43;31.47;98065.34;7394012;19;20026;-53
2023/12/12 03:50:36;;;;;;;0.90;0.35;;;;;;;33.31;31.56;98062.13;7397412;19;20351;-54
2023/12/12 03:53:02;;;;;;;0.40;0.40;;;;;;;33.31;31.36;98062.13;7399198;19;20030;-54
2023/12/12 03:55:28;;;;;;;0.43;0.43;;;;;;;33.39;31.09;98054.41;7393799;19;20487;-54
2023/12/12 03:57:54;;;;;;;0.45;0.45;;;;;;;33.67;31.25;98050.84;7392488;19;20007;-54
2023/12/12 04:00:20;;;;;;;0.52;0.52;;;;;;;33.69;31.13;98048.75;7396800;19;20690;-54
2023/12/12 04:02:46;;;;;;;0.80;0.80;;;;;;;33.66;31.40;98044.34;7394394;19;20018;-54
2023/12/12 04:05:12;;;;;;;2.85;0.50;;;;;;;33.49;30.86;98033.75;7393353;19;20022;-53
2023/12/12 04:07:39;;;;;;;1.48;0.52;;;;;;;33.60;31.03;98029.75;7397609;19;20017;-53
2023/12/12 04:10:09;;;;;;;1.80;1.20;;;;;;;33.66;30.93;98032.78;7395673;19;20355;-54
2023/12/12 04:12:35;;;;;;;0.55;0.30;;;;;;;33.74;30.53;98038.06;7393709;19;20018;-53
2023/12/12 04:15:03;;;;;;;0.20;0.17;;;;;;;33.85;31.07;98025.34;7395142;19;20019;-53
2023/12/12 04:17:30;;;;;;;1.77;0.45;;;;;;;33.85;30.76;98020.28;7393739;19;20039;-53
2023/12/12 04:19:56;;;;;;;0.75;0.45;;;;;;;34.09;30.35;98018.03;7395102;19;20454;-54
2023/12/12 04:22:23;;;;;;;0.17;0.17;;;;;;;34.44;30.02;98010.91;7392509;19;20021;-53
2023/12/12 04:24:49;;;;;;;0.57;0.57;;;;;;;34.40;30.25;98019.50;7393529;19;20010;-54
2023/12/12 04:27:15;;;;;;;0.25;0.10;;;;;;;34.40;29.86;98019.50;7392770;19;20518;-53
2023/12/12 04:29:41;;;;;;;0.70;0.30;;;;;;;34.47;29.95;98011.69;7394009;19;20048;-54
2023/12/12 04:32:08;;;;;;;1.25;0.60;;;;;;;34.51;29.98;98006.78;7397376;19;20007;-53
2023/12/12 04:34:34;;;;;;;13.25;0.85;;;;;;;34.40;30.04;98012.97;7395395;19;20011;-54
2023/12/12 04:37:03;;;;;;;2.75;1.27;;;;;;;34.44;30.03;98004.44;7396428;19;20030;-53
2023/12/12 04:39:29;;;;;;;0.70;0.60;;;;;;;34.72;29.95;98007.94;7396276;19;20035;-54
2023/12/12 04:41:55;;;;;;;0.43;0.15;;;;;;;34.88;29.69;98011.22;7394297;19;20010;-54
2023/12/12 04:44:21;;;;;;;3.47;0.57;;;;;;;35.03;29.17;98001.41;7396003;19;20018;-54
2023/12/12 04:46:48;;;;;;;0.60;0.60;;;;;;;35.04;29.41;97997.13;7396257;19;20106;-54
2023/12/12 04:49:14;;;;;;;2.88;1.23;;;;;;;34.97;29.63;97990.44;7393047;19;20021;-54
2023/12/12 04:51:40;;;;;;;2.40;0.90;;;;;;;35.25;29.27;97992.44;7391381;19;20020;-53
2023/12/12 04:54:06;;;;;;;0.63;0.63;;;;;;;35.27;29.46;98001.91;7392511;19;20372;-53
2023/12/12 04:56:32;;;;;;;0.73;0.73;;;;;;;35.42;28.79;98003.66;7392262;19;20395;-53
2023/12/12 04:58:58;;;;;;;2.65;0.55;;;;;;;35.49;29.02;98005.28;7392676;19;20014;-54
2023/12/12 05:01:24;;;;;;;2.92;0.47;;;;;;;35.67;28.77;98001.97;7395223;19;20376;-54
2023/12/12 05:03:50;;;;;;;1.20;0.75;;;;;;;35.71;28.96;98014.34;7391002;19;20066;-53
2023/12/12 05:06:17;;;;;;;1.17;0.55;;;;;;;35.86;28.62;98005.91;7392867;19;20011;-53
2023/12/12 05:08:43;;;;;;;3.90;1.05;;;;;;;35.92;28.69;98015.44;7390514;19;20011;-53
2023/12/12 05:11:13;;;;;;;2.08;1.50;;;;;;;35.79;28.63;97988.44;7394323;19;20023;-54
2023/12/12 05:13:40;;;;;;;2.22;0.47;;;;;;;35.79;28.95;97993.50;7390731;19;20070;-53
2023/12/12 05:16:09;;;;;;;6.40;0.85;;;;;;;36.12;28.79;97989.00;7390879;19;20463;-54
2023/12/12 05:18:36;;;;;;;1.75;0.50;;;;;;;35.89;28.26;97987.84;7390725;19;20082;-54
2023/12/12 05:21:02;;;;;;;1.08;0.40;;;;;;;35.71;28.10;97988.28;7394144;19;20628;-54
2023/12/12 05:23:28;;;;;;;5.50;1.02;;;;;;;35.50;28.22;97991.50;7391029;19;20014;-53
2023/12/12 05:25:54;;;;;;;1.20;0.68;;;;;;;35.53;28.41;97985.06;7392230;19;20011;-53
2023/12/12 05:28:21;;;;;;;3.92;1.17;;;;;;;35.57;28.65;97982.25;7391637;19;20030;-53
2023/12/12 05:30:47;;;;;;;0.40;0.40;;;;;;;35.52;28.34;97982.88;7392838;19;20007;-54
2023/12/12 05:33:13;;;;;;;1.90;1.25;;;;;;;35.42;28.63;97980.50;7390535;19;20014;-53
2023/12/12 05:35:39;;;;;;;0.25;0.25;;;;;;;35.51;28.46;97975.59;7391496;19;20038;-54
2023/12/12 05:38:06;;;;;;;6.32;0.50;;;;;;;35.29;28.22;97970.09;7388948;19;20459;-53
2023/12/12 05:40:33;;;;;;;3.90;0.47;;;;;;;35.26;28.77;97965.69;7392437;19;20017;-54
2023/12/12 05:42:59;;;;;;;0.32;0.30;;;;;;;35.28;28.59;97968.63;7391402;19;20344;-53
2023/12/12 05:45:25;;;;;;;4.15;0.70;;;;;;;35.25;28.78;97963.50;7387826;19;20019;-53
2023/12/12 05:47:52;;;;;;;5.63;0.90;;;;;;;35.25;28.58;97957.72;7398333;19;20014;-53
2023/12/12 05:50:18;;;;;;;1.45;0.63;;;;;;;35.21;28.71;97960.53;7401817;19;20514;-54
2023/12/12 05:52:44;;;;;;;1.55;0.57;;;;;;;35.19;28.51;97949.66;7398589;19;20015;-53
2023/12/12 05:55:10;;;;;;;0.73;0.30;;;;;;;35.16;28.67;97953.19;7398810;19;20046;-53
2023/12/12 05:57:36;;;;;;;2.15;0.82;;;;;;;35.09;28.66;97945.84;7398092;19;20363;-54
2023/12/12 06:00:06;;;;;;;0.40;0.22;;;;;;;35.08;28.91;97945.09;7399316;19;20033;-54
2023/12/12 06:02:38;;;;;;;6.88;0.55;;;;;;;35.07;28.72;97949.41;7396332;19;20103;-53
2023/12/12 06:05:07;;;;;;;5.55;1.75;;;;;;;35.10;28.67;97948.03;7395132;19;20022;-53
2023/12/12 06:07:37;;;;;;;7.40;0.98;;;;;;;35.01;28.86;97949.28;7400033;19;20010;-54
2023/12/12 06:10:08;;;;;;;0.50;0.50;;;;;;;35.00;29.06;97950.72;7398271;19;20339;-53
2023/12/12 06:12:34;;;;;;;1.27;0.80;;;;;;;35.13;28.98;97937.94;7396958;19;20021;-53
2023/12/12 06:15:01;;;;;;;1.23;0.73;;;;;;;35.15;28.97;97937.97;7397770;19;20373;-53
2023/12/12 06:17:27;;;;;;;2.55;0.93;;;;;;;35.16;28.48;97942.34;7397745;19;20006;-53
2023/12/12 06:19:53;;;;;;;1.85;0.20;;;;;;;35.12;28.52;97936.50;7397161;19;20344;-53
2023/12/12 06:22:19;;;;;;;3.50;1.15;;;;;;;35.14;28.65;97922.06;7396719;19;20347;-53
2023/12/12 06:24:45;;;;;;;6.60;1.23;;;;;;;35.12;28.72;97919.13;7395719;19;20014;-53
2023/12/12 06:27:12;;;;;;;0.85;0.52;;;;;;;34.86;28.84;97924.38;7396881;19;20022;-53
2023/12/12 06:29:38;;;;;;;2.50;1.55;;;;;;;34.92;28.73;97915.81;7397925;19;20017;-53
2023/12/12 06:32:05;;;;;;;1.38;0.40;;;;;;;35.00;28.63;97913.84;7397114;19;20082;-54
2023/12/12 06:34:32;;;;;;;7.72;1.27;;;;;;;35.04;29.13;97918.97;7395537;19;20011;-53
2023/12/12 06:36:58;;;;;;;2.05;1.60;;;;;;;34.91;29.01;97923.03;7399930;19;20023;-53
2023/12/12 06:39:25;;;;;;;6.22;1.48;;;;;;;34.85;28.87;97923.63;7396891;19;20010;-54
2023/12/12 06:41:51;;;;;;;7.45;1.38;;;;;;;34.76;28.88;97915.50;7397129;19;20035;-54
2023/12/12 06:44:17;;;;;;;0.35;0.32;;;;;;;34.72;28.70;97921.91;7395740;19;20055;-54
2023/12/12 06:46:44;;;;;;;3.10;1.02;;;;;;;34.83;29.04;97914.91;7396147;19;20038;-53
2023/12/12 06:49:10;;;;;;;4.00;1.30;;;;;;;34.85;28.74;97917.09;7397427;19;20017;-54
2023/12/12 06:51:36;;;;;;;1.63;0.98;;;;;;;34.91;29.01;97915.06;7399690;19;20014;-54
2023/12/12 06:54:03;;;;;;;1.13;0.57;;;;;;;35.01;29.02;97918.19;7395964;19;20023;-54
2023/12/12 06:56:30;;;;;;;2.33;1.48;;;;;;;35.12;28.86;97919.13;7394748;19;20031;-53
2023/12/12 06:58:57;;;;;;;0.90;0.63;;;;;;;35.23;28.93;97912.09;7395695;19;20031;-53
2023/12/12 07:01:23;;;;;;;1.38;1.27;;;;;;;35.46;28.75;97913.97;7398172;19;20081;-54
2023/12/12 07:03:49;;;;;;;1.33;1.13;;;;;;;35.50;28.77;97908.25;7394179;19;20017;-54
2023/12/12 07:06:18;;;;;;;0.57;0.57;;;;;;;35.52;28.78;97898.88;7398683;19;20035;-54
2023/12/12 07:08:45;;;;;;;6.22;1.15;;;;;;;35.07;28.87;97908.88;7399655;19;20027;-54
2023/12/12 07:11:13;;;;;;;0.20;0.20;;;;;;;35.04;29.28;97904.50;7398794;19;20368;-54
2023/12/12 07:13:40;;;;;;;1.30;0.35;;;;;;;35.09;28.90;97906.03;7397548;19;20018;-53
2023/12/12 07:16:09;;;;;;;3.05;0.22;;;;;;;34.99;28.77;97909.47;7399653;19;20387;-54
2023/12/12 07:18:39;;;;;;;0.68;0.35;;;;;;;34.93;28.97;97899.94;7398885;19;20482;-54
2023/12/12 07:21:06;;;;;;;1.27;1.08;;;;;;;35.00;28.81;97895.72;7398800;19;20021;-54
2023/12/12 07:23:32;;;;;;;0.57;0.57;;;;;;;35.05;29.08;97891.50;7394448;19;20215;-54
2023/12/12 07:25:59;;;;;;;1.27;0.73;;;;;;;35.10;29.09;97890.16;7392841;19;20018;-53
2023/12/12 07:28:27;;;;;;;7.25;0.68;;;;;;;35.04;28.76;97875.56;7394412;19;20050;-53
2023/12/12 07:30:53;;;;;;;0.80;0.80;;;;;;;35.10;28.90;97886.50;7397922;19;20118;-54
2023/12/12 07:33:20;;;;;;;4.68;1.05;;;;;;;34.96;28.67;97886.94;7397414;19;20010;-53
2023/12/12 07:35:46;;;;;;;3.47;1.20;;;;;;;34.97;29.07;97882.63;7399045;19;20356;-53
2023/12/12 07:38:13;;;;;;;0.98;0.38;;;;;;;34.81;28.76;97888.09;7399636;19;20087;-53
2023/12/12 07:40:39;;;;;;;1.30;1.05;;;;;;;34.53;29.05;97882.47;7398575;19;20014;-53
2023/12/12 07:43:05;;;;;;;4.18;1.40;;;;;;;34.45;29.06;97893.13;7398371;19;20103;-53
2023/12/12 07:45:31;;;;;;;3.90;1.00;;;;;;;34.57;29.34;97899.16;7396809;19;20023;-53
2023/12/12 07:47:57;;;;;;;1.77;0.63;;;;;;;34.45;29.07;97890.22;7396821;19;20006;-53
2023/12/12 07:50:24;;;;;;;6.50;0.93;;;;;;;34.52;29.02;97892.59;7398573;19;20015;-53
2023/12/12 07:52:50;;;;;;;1.42;1.33;;;;;;;34.62;29.54;97897.84;7394866;19;20372;-53
2023/12/12 07:55:16;;;;;;;8.93;1.30;;;;;;;34.78;29.33;97889.50;7398181;19;20026;-54
2023/12/12 07:57:42;;;;;;;1.65;1.02;;;;;;;34.82;29.01;97886.69;7398392;19;20007;-54
2023/12/12 08:00:10;;;;;;;2.53;0.75;;;;;;;34.92;29.09;97901.34;7395549;19;20014;-54
2023/12/12 08:02:39;;;;;;;5.10;1.17;;;;;;;34.80;28.94;97889.53;7394350;19;20014;-54
2023/12/12 08:05:06;;;;;;;0.93;0.85;;;;;;;34.54;29.13;97889.00;7397249;19;20078;-54
2023/12/12 08:07:32;;;;;;;1.33;1.00;;;;;;;34.76;29.12;97887.28;7398217;19;20026;-54
2023/12/12 08:09:58;;;;;;;1.20;0.55;;;;;;;34.75;29.20;97873.53;7391803;19;20010;-54
2023/12/12 08:12:25;;;;;;;2.72;0.93;;;;;;;34.92;28.93;97875.31;7393667;19;20471;-54
2023/12/12 08:14:53;;;;;;;2.88;0.85;;;;;;;34.98;28.79;97866.72;7393307;19;20728;-54
2023/12/12 08:17:20;;;;;;;4.47;0.98;;;;;;;35.00;28.87;97858.09;7392995;19;20459;-54
2023/12/12 08:19:46;;;;;;;4.47;1.05;;;;;;;35.09;28.75;97859.00;7393530;19;20025;-54
2023/12/12 08:22:12;;;;;;;1.92;0.85;;;;;;;35.13;28.83;97853.28;7392829;19;20463;-54
2023/12/12 08:24:38;;;;;;;0.75;0.73;;;;;;;35.18;29.08;97849.75;7392364;19;20007;-54
2023/12/12 08:27:06;;;;;;;6.40;1.30;;;;;;;35.31;28.97;97845.66;7397546;19;20051;-54
2023/12/12 08:29:32;;;;;;;2.20;1.05;;;;;;;35.22;28.74;97837.50;7393590;19;20015;-53
2023/12/12 08:31:58;;;;;;;2.25;1.02;;;;;;;35.25;28.67;97833.97;7393312;19;20850;-54
2023/12/12 08:34:24;;;;;;;6.60;1.48;;;;;;;35.41;28.71;97834.22;7393341;19;20025;-54
2023/12/12 08:36:50;;;;;;;5.63;1.42;;;;;;;35.17;29.14;97847.56;7395756;19;20014;-54
2023/12/12 08:39:17;;;;;;;0.60;0.60;;;;;;;35.05;29.10;97842.28;7393102;19;20088;-54
2023/12/12 08:41:43;;;;;;;0.55;0.32;;;;;;;35.28;28.60;97846.31;7396949;19;20368;-53
2023/12/12 08:44:09;;;;;;;5.93;1.45;;;;;;;35.49;28.91;97843.09;7391251;19;20021;-54
2023/12/12 08:46:35;;;;;;;2.58;0.32;;;;;;;35.48;29.22;97835.81;7392605;19;20014;-54
2023/12/12 08:49:02;;;;;;;1.90;0.57;;;;;;;35.49;29.21;97831.50;7394177;19;20035;-54
2023/12/12 08:51:30;;;;;;;1.88;1.50;;;;;;;35.50;29.15;97832.97;7396890;19;20022;-54
2023/12/12 08:53:58;;;;;;;1.63;0.82;;;;;;;35.63;29.02;97820.13;7392417;19;20521;-54
2023/12/12 08:56:25;;;;;;;0.90;0.90;;;;;;;35.52;28.70;97818.50;7392092;19;20016;-54
2023/12/12 08:58:51;;;;;;;3.13;0.55;;;;;;;35.25;28.52;97825.28;7391804;19;20106;-54
2023/12/12 09:01:17;;;;;;;1.67;0.73;;;;;;;35.23;29.13;97822.38;7396171;19;20011;-54
2023/12/12 09:03:44;;;;;;;1.50;0.73;;;;;;;35.21;29.55;97819.44;7391216;19;20011;-54
2023/12/12 09:06:11;;;;;;;0.90;0.40;;;;;;;35.26;29.41;97812.25;7394615;19;20025;-54
2023/12/12 09:08:41;;;;;;;2.05;0.77;;;;;;;35.02;29.40;97826.34;7392006;19;20007;-54
2023/12/12 09:11:10;;;;;;;0.63;0.43;;;;;;;34.87;29.95;97827.47;7395098;19;20086;-54
2023/12/12 09:13:37;;;;;;;2.90;0.80;;;;;;;34.92;29.81;97818.16;7392243;19;20010;-54
2023/12/12 09:16:04;;;;;;;3.72;1.13;;;;;;;34.99;29.72;97816.13;7390177;19;20009;-53
2023/12/12 09:18:30;;;;;;;1.02;0.40;;;;;;;34.87;29.53;97815.91;7389252;19;20014;-54
2023/12/12 09:20:56;;;;;;;2.13;0.93;;;;;;;35.00;29.59;97811.81;7396671;19;20497;-54
2023/12/12 09:23:27;;;;;;;6.43;0.95;;;;;;;34.84;29.66;97818.03;7398518;19;20074;-54
2023/12/12 09:25:54;;;;;;;4.65;0.35;;;;;;;35.06;29.57;97809.03;7396963;19;20030;-53
2023/12/12 09:28:22;;;;;;;3.05;0.65;;;;;;;35.09;29.72;97816.31;7399407;19;20007;-54
2023/12/12 09:30:48;;;;;;;0.88;0.85;;;;;;;35.01;29.54;97816.91;7397373;19;20007;-54
2023/12/12 09:33:14;;;;;;;1.65;1.20;;;;;;;35.20;29.85;97809.28;7391105;19;20038;-54
2023/12/12 09:35:40;;;;;;;0.45;0.43;;;;;;;35.93;28.94;97814.03;7394563;19;20118;-54
2023/12/12 09:38:06;;;;;;;1.98;1.77;;;;;;;36.28;28.75;97800.75;7393384;19;20589;-54
2023/12/12 09:40:35;;;;;;;5.07;1.45;;;;;;;36.18;28.77;97809.34;7393079;19;20015;-54
2023/12/12 09:43:02;;;;;;;1.85;1.15;;;;;;;36.26;28.83;97803.63;7390310;19;20022;-54
2023/12/12 09:45:30;;;;;;;2.53;0.65;;;;;;;36.30;28.76;97803.72;7390085;19;20356;-54
2023/12/12 09:47:57;;;;;;;0.43;0.43;;;;;;;36.49;28.79;97803.22;7398418;19;20034;-54
2023/12/12 09:50:25;;;;;;;1.15;1.10;;;;;;;36.47;28.58;97799.59;7400488;19;20014;-54
2023/12/12 09:52:53;;;;;;;3.80;1.08;;;;;;;36.50;28.15;97801.06;7397912;19;20025;-54
2023/12/12 09:55:23;;;;;;;1.40;1.23;;;;;;;36.77;28.37;97802.09;7400578;19;20014;-53
2023/12/12 09:57:49;;;;;;;5.95;2.25;;;;;;;37.04;28.02;97795.84;7398078;19;20041;-53
2023/12/12 10:00:18;;;;;;;2.13;0.50;;;;;;;37.12;27.94;97795.91;7399874;19;20019;-53
2023/12/12 10:02:46;;;;;;;0.63;0.50;;;;;;;37.18;27.85;97798.91;7397513;19;20345;-53
2023/12/12 10:05:12;;;;;;;8.48;0.73;;;;;;;36.61;28.07;97796.09;7396966;19;20014;-53
2023/12/12 10:07:40;;;;;;;1.48;0.57;;;;;;;36.65;27.88;97796.88;7403247;19;20035;-53
2023/12/12 10:10:12;;;;;;;1.95;0.63;;;;;;;36.56;27.99;97800.41;7399512;19;20034;-53
2023/12/12 10:12:38;;;;;;;2.15;1.15;;;;;;;36.42;28.03;97801.72;7397972;19;20011;-53
2023/12/12 10:15:21;;;;;;;0.50;0.40;;;;;;;36.31;28.23;97793.56;7396677;19;20019;-53
2023/12/12 10:17:47;;;;;;;3.58;0.63;;;;;;;36.40;28.19;97789.31;7397740;19;20018;-53
2023/12/12 10:20:14;;;;;;;2.75;0.40;;;;;;;36.58;27.90;97792.44;7396823;19;20011;-53
2023/12/12 10:22:40;;;;;;;2.35;0.95;;;;;;;36.78;27.65;97781.06;7398618;19;20018;-53
2023/12/12 10:25:10;;;;;;;3.53;0.90;;;;;;;36.13;28.03;97779.56;7395096;19;20039;-53
2023/12/12 10:27:42;;;;;;;1.08;0.45;;;;;;;36.54;28.09;97786.59;7398149;19;20344;-52
2023/12/12 10:30:09;;;;;;;0.47;0.47;;;;;;;36.72;27.86;97788.97;7398820;19;20021;-53
2023/12/12 10:32:38;;;;;;;5.50;1.08;;;;;;;36.82;27.49;97795.59;7395506;19;20011;-53
2023/12/12 10:35:05;;;;;;;1.15;1.08;;;;;;;36.14;28.10;97786.09;7398237;19;20030;-53
2023/12/12 10:37:31;;;;;;;0.28;0.15;;;;;;;36.08;28.06;97795.47;7402023;19;20074;-53
2023/12/12 10:40:23;;;;;;;2.08;0.88;;;;;;;36.80;27.53;97794.84;7397455;19;20031;-53
2023/12/12 10:42:49;;;;;;;0.57;0.57;;;;;;;36.78;27.33;97781.06;7397390;19;20094;-53
2023/12/12 10:45:17;;;;;;;1.05;0.60;;;;;;;36.75;27.19;97778.84;7396173;19;20007;-53
2023/12/12 10:47:48;;;;;;;1.65;0.30;;;;;;;36.19;27.82;97770.22;7396525;19;20018;-53
2023/12/12 10:50:16;;;;;;;1.10;1.00;;;;;;;36.89;27.14;97773.94;7397362;19;20070;-53
2023/12/12 10:52:45;;;;;;;2.15;1.08;;;;;;;36.58;27.46;97775.03;7398437;19;20107;-53
2023/12/12 10:55:13;;;;;;;0.20;0.20;;;;;;;36.43;27.71;97761.81;7396997;19;20007;-53
2023/12/12 10:57:44;;;;;;;0.90;0.22;;;;;;;36.59;27.91;97759.09;7395908;19;20019;-53
2023/12/12 11:00:13;;;;;;;0.10;0.10;;;;;;;36.51;28.18;97750.31;7398319;19;20026;-53
2023/12/12 11:02:40;;;;;;;2.33;0.40;;;;;;;36.42;28.74;97748.75;7395713;19;20010;-53
2023/12/12 11:05:10;;;;;;;0.10;0.10;;;;;;;28.31;40.62;97750.56;7399831;19;20015;-53
2023/12/12 11:07:37;;;;;;;1.30;0.57;;;;;;;35.55;30.79;97730.25;7400268;19;20352;-54
2023/12/12 11:10:09;;;;;;;1.17;0.77;;;;;;;36.30;29.85;97723.22;7395610;19;20007;-53
2023/12/12 11:13:03;;;;;;;0.68;0.35;;;;;;;37.02;29.30;97717.47;7395819;19;20037;-54
2023/12/12 11:15:30;;;;;;;0.10;0.10;;;;;;;36.75;29.37;97712.13;7394876;19;20066;-54
2023/12/12 11:17:56;;;;;;;0.57;0.57;;;;;;;35.97;30.29;97709.09;7395164;19;20047;-54
2023/12/12 11:20:24;;;;;;;7.35;0.55;;;;;;;37.44;29.31;97698.91;7394406;19;20070;-53
2023/12/12 11:22:52;;;;;;;0.90;0.90;;;;;;;36.85;29.95;97683.91;7395275;19;20475;-54
2023/12/12 11:25:22;;;;;;;2.97;0.88;;;;;;;36.55;30.29;97663.34;7397842;19;20010;-54
2023/12/12 11:27:50;;;;;;;0.65;0.30;;;;;;;36.56;30.29;97673.50;7397737;19;20070;-54
2023/12/12 11:30:18;;;;;;;0.30;0.20;;;;;;;36.45;29.87;97663.97;7394746;19;20355;-54
2023/12/12 11:32:45;;;;;;;0.13;0.10;;;;;;;36.33;30.16;97660.19;7393099;19;20010;-54